Latest Weather Observations for Port Kembla Harbour

IDN60801

Issued at 10:32 pm EST Wednesday 2 September 2015 (issued every 30 minutes, with the page automatically refreshed every 10 minutes)

About weather observations | Map of weather stations | Latest weather observations for NSW | Other Formats
Station Details ID: 068253 Name: PORT KEMBLA NTC AWS Lat: -34.47 Lon: 150.91 Height: 0.0 m
Data from the previous 72 hours. | See also: Recent months for locations in New South Wales
Date/Time
EST
Temp
°C
App
Temp
°C
Dew
Point
Rel
Hum
%
Delta-T
°C
Wind Press
QNH
hPa
Press
MSL
hPa
Rain
since 9 am
mm
Dir
 
Spd
km/h
Gust
km/h
Spd
kts
Gust
kts
02/10:30pm 14.9 - - - - W 4 4 2 2 1008.3 1008.3 -
02/10:00pm 15.7 - - - - N 4 9 2 5 1008.6 1008.6 -
02/09:30pm 15.6 - - - - NW 4 6 2 3 1009.1 1009.1 -
02/09:00pm 15.7 - - - - NW 6 9 3 5 1009.4 1009.4 -
02/08:30pm 16.0 - - - - N 4 7 2 4 1009.8 1009.8 -
02/08:00pm 16.2 - - - - NNE 6 9 3 5 1010.2 1010.2 -
02/07:30pm 16.1 - - - - NNW 7 9 4 5 1010.6 1010.6 -
02/07:00pm 16.1 - - - - NNW 6 9 3 5 1010.4 1010.4 -
02/06:30pm 16.6 - - - - N 13 20 7 11 1010.6 1010.6 -
02/06:00pm 17.1 - - - - NNE 20 28 11 15 1010.7 1010.7 -
02/05:30pm 16.9 - - - - NNE 22 28 12 15 1010.7 1010.7 -
02/05:00pm 16.7 - - - - NE 20 26 11 14 1010.7 1010.7 -
02/04:30pm 16.6 - - - - NNE 20 28 11 15 1011.1 1011.1 -
02/04:00pm 16.5 - - - - NE 19 26 10 14 1010.9 1010.9 -
02/03:30pm 16.1 - - - - NE 24 33 13 18 1010.9 1010.9 -
02/03:00pm 15.7 - - - - NE 24 33 13 18 1011.1 1011.1 -
02/02:30pm 15.9 - - - - NE 24 33 13 18 1011.5 1011.5 -
02/02:00pm 16.2 - - - - NE 22 30 12 16 1011.9 1011.9 -
02/01:30pm 16.1 - - - - NE 20 28 11 15 1012.4 1012.4 -
02/01:00pm 16.2 - - - - NE 24 32 13 17 1013.0 1013.0 -
02/12:30pm 16.3 - - - - NE 19 28 10 15 1013.6 1013.6 -
02/12:00pm 16.4 - - - - NNE 13 26 7 14 1014.3 1014.3 -
02/11:30am 16.0 - - - - NE 13 19 7 10 1015.0 1015.0 -
02/11:00am 16.0 - - - - NNE 13 20 7 11 1015.7 1015.7 -
02/10:30am 16.1 - - - - NNE 9 13 5 7 1016.0 1016.0 -
02/10:00am 16.7 - - - - NNE 4 7 2 4 1016.3 1016.3 -
02/09:30am 15.2 - - - - NNE 9 13 5 7 1016.6 1016.6 -
02/09:00am 14.6 - - - - E 4 7 2 4 1016.8 1016.8 -
02/08:30am 14.8 - - - - N 6 9 3 5 1016.9 1016.9 -
02/08:00am 13.3 - - - - W 9 15 5 8 1016.7 1016.7 -
02/07:30am 11.9 - - - - W 9 13 5 7 1016.7 1016.7 -
02/07:00am 10.5 - - - - WSW 6 7 3 4 1016.5 1016.5 -
02/06:30am 10.4 - - - - W 7 9 4 5 1016.5 1016.5 -
02/06:00am 11.6 - - - - W 9 13 5 7 1016.2 1016.2 -
02/05:30am 11.3 - - - - W 11 15 6 8 1015.9 1015.9 -
02/05:00am 11.4 - - - - SW 6 9 3 5 1015.6 1015.6 -
02/04:30am 12.4 - - - - W 15 22 8 12 1015.6 1015.6 -
02/04:00am 12.2 - - - - W 13 17 7 9 1015.7 1015.7 -
02/03:30am 11.4 - - - - WSW 7 11 4 6 1015.6 1015.6 -
02/03:00am 11.7 - - - - W 15 22 8 12 1015.7 1015.7 -
02/02:30am 12.2 - - - - W 11 19 6 10 1015.9 1015.9 -
02/02:00am 11.5 - - - - WSW 9 11 5 6 1016.1 1016.1 -
02/01:30am 12.2 - - - - W 9 11 5 6 1016.1 1016.1 -
02/01:00am 11.9 - - - - W 11 17 6 9 1016.2 1016.2 -
02/12:30am 10.7 - - - - W 9 13 5 7 1016.0 1016.0 -
02/12:00am 11.2 - - - - WSW 11 17 6 9 1016.0 1016.0 -
 
Date/Time
EST
Temp
°C
App
Temp
°C
Dew
Point
Rel
Hum
%
Delta-T
°C
Wind Press
QNH
hPa
Press
MSL
hPa
Rain
since 9 am
mm
Dir
 
Spd
km/h
Gust
km/h
Spd
kts
Gust
kts
01/11:30pm 11.7 - - - - WSW 13 17 7 9 1015.8 1015.8 -
01/11:00pm 12.0 - - - - WSW 11 13 6 7 1015.8 1015.8 -
01/10:30pm 11.5 - - - - SW 6 9 3 5 1015.7 1015.7 -
01/10:00pm 11.4 - - - - WSW 6 9 3 5 1015.7 1015.7 -
01/09:30pm 11.3 - - - - WSW 9 11 5 6 1015.5 1015.5 -
01/09:00pm 11.9 - - - - WSW 6 7 3 4 1015.2 1015.2 -
01/08:30pm 12.3 - - - - WSW 6 9 3 5 1015.1 1015.1 -
01/08:00pm 12.4 - - - - W 7 9 4 5 1014.8 1014.8 -
01/07:30pm 12.7 - - - - WSW 6 7 3 4 1014.6 1014.6 -
01/07:00pm 13.6 - - - - W 7 9 4 5 1014.3 1014.3 -
01/06:30pm 15.0 - - - - NNW 2 6 1 3 1013.9 1013.9 -
01/06:00pm 14.9 - - - - NNE 6 7 3 4 1013.6 1013.6 -
01/05:30pm 15.0 - - - - NNE 6 9 3 5 1013.3 1013.3 -
01/05:00pm 15.2 - - - - NNE 6 9 3 5 1013.0 1013.0 -
01/04:30pm 15.3 - - - - NE 6 7 3 4 1013.0 1013.0 -
01/04:00pm 15.4 - - - - ESE 6 9 3 5 1012.9 1012.9 -
01/03:30pm 15.2 - - - - ESE 6 13 3 7 1012.9 1012.9 -
01/03:00pm 15.3 - - - - ENE 6 9 3 5 1013.0 1013.0 -
01/02:30pm 15.1 - - - - E 7 11 4 6 1012.9 1012.9 -
01/02:00pm 14.9 - - - - ESE 9 15 5 8 1013.0 1013.0 -
01/01:30pm 14.8 - - - - ESE 11 15 6 8 1013.1 1013.1 -
01/01:00pm 14.4 - - - - SE 13 19 7 10 1013.3 1013.3 -
01/12:30pm 14.4 - - - - SE 13 19 7 10 1013.8 1013.8 -
01/12:00pm 14.6 - - - - SE 11 17 6 9 1014.1 1014.1 -
01/11:30am 14.4 - - - - SSE 7 13 4 7 1014.6 1014.6 -
01/11:00am 14.0 - - - - W 7 17 4 9 1014.7 1014.7 -
01/10:30am 13.4 - - - - WSW 15 20 8 11 1015.0 1015.0 -
01/10:00am 13.4 - - - - WSW 17 26 9 14 1015.1 1015.1 -
01/09:30am 12.6 - - - - WSW 19 26 10 14 1015.2 1015.2 -
01/09:00am 12.4 - - - - WSW 20 30 11 16 1015.2 1015.2 -
01/08:30am 12.0 - - - - WSW 22 33 12 18 1015.1 1015.1 -
01/08:00am 11.6 - - - - W 20 28 11 15 1015.1 1015.1 -
01/07:30am 11.1 - - - - W 24 32 13 17 1014.9 1014.9 -
01/07:00am 10.5 - - - - WNW 13 20 7 11 1014.7 1014.7 -
01/06:30am 10.5 - - - - W 19 24 10 13 1014.5 1014.5 -
01/06:00am 10.9 - - - - W 19 24 10 13 1014.4 1014.4 -
01/05:30am 11.5 - - - - WSW 22 28 12 15 1014.0 1014.0 -
01/05:00am 11.5 - - - - WSW 17 24 9 13 1013.8 1013.8 -
01/04:30am 11.5 - - - - WSW 17 24 9 13 1013.8 1013.8 -
01/04:00am 11.7 - - - - WSW 15 20 8 11 1013.7 1013.7 -
01/03:30am 11.7 - - - - WSW 13 20 7 11 1013.8 1013.8 -
01/03:00am 11.8 - - - - WSW 13 19 7 10 1013.8 1013.8 -
01/02:30am 11.6 - - - - W 13 17 7 9 1013.8 1013.8 -
01/02:00am 11.9 - - - - W 13 15 7 8 1014.2 1014.2 -
01/01:30am 12.2 - - - - W 11 15 6 8 1014.5 1014.5 -
01/01:00am 12.7 - - - - WSW 13 17 7 9 1014.7 1014.7 -
01/12:30am 12.4 - - - - SW 9 15 5 8 1014.8 1014.8 -
01/12:00am 12.3 - - - - WSW 13 17 7 9 1014.9 1014.9 -
 
Date/Time
EST
Temp
°C
App
Temp
°C
Dew
Point
Rel
Hum
%
Delta-T
°C
Wind Press
QNH
hPa
Press
MSL
hPa
Rain
since 9 am
mm
Dir
 
Spd
km/h
Gust
km/h
Spd
kts
Gust
kts
31/11:30pm 12.9 - - - - WSW 13 15 7 8 1014.8 1014.8 -
31/11:00pm 12.8 - - - - WSW 9 13 5 7 1014.8 1014.8 -
31/10:30pm 12.8 - - - - WSW 13 19 7 10 1015.0 1015.0 -
31/10:00pm 12.8 - - - - WSW 13 15 7 8 1015.1 1015.1 -
31/09:30pm 13.3 - - - - WSW 9 13 5 7 1015.1 1015.1 -
31/09:00pm 13.4 - - - - W 11 15 6 8 1015.0 1015.0 -
31/08:30pm 12.9 - - - - WSW 11 17 6 9 1015.0 1015.0 -
31/08:00pm 12.8 - - - - WSW 13 17 7 9 1015.0 1015.0 -
31/07:30pm 13.8 - - - - WSW 9 13 5 7 1014.7 1014.7 -
31/07:00pm 14.3 - - - - WSW 11 15 6 8 1014.5 1014.5 -
31/06:30pm 14.8 - - - - SW 9 15 5 8 1014.2 1014.2 -
31/06:00pm 15.3 - - - - SSW 7 19 4 10 1013.9 1013.9 -
31/05:30pm 15.5 - - - - S 9 19 5 10 1013.8 1013.8 -
31/05:00pm 15.3 - - - - S 9 17 5 9 1013.7 1013.7 -
31/04:30pm 15.6 - - - - S 11 22 6 12 1013.5 1013.5 -
31/04:00pm 15.9 - - - - S 13 24 7 13 1013.5 1013.5 -
31/03:30pm 15.9 - - - - S 13 26 7 14 1013.4 1013.4 -
31/03:00pm 16.4 - - - - S 11 24 6 13 1013.6 1013.6 -
31/02:30pm 16.1 - - - - SSE 15 26 8 14 1013.8 1013.8 -
31/02:00pm 16.3 - - - - SSE 13 22 7 12 1014.0 1014.0 -
31/01:30pm 16.2 - - - - S 13 22 7 12 1014.3 1014.3 -
31/01:00pm 15.9 - - - - SSE 11 22 6 12 1014.5 1014.5 -
31/12:30pm 15.7 - - - - S 11 24 6 13 1014.9 1014.9 -
31/12:00pm 15.4 - - - - S 9 20 5 11 1015.4 1015.4 -
31/11:30am 15.0 - - - - WSW 19 30 10 16 1015.7 1015.7 -
31/11:00am 14.8 - - - - WSW 17 26 9 14 1016.2 1016.2 -
31/10:30am 14.3 - - - - WSW 17 26 9 14 1016.4 1016.4 -
31/10:00am 14.1 - - - - SW 17 26 9 14 1016.5 1016.5 -
31/09:30am 14.2 - - - - SW 15 24 8 13 1016.7 1016.7 -
31/09:00am 12.7 - - - - WSW 13 20 7 11 1016.8 1016.8 -

Other Formats:

Comma delimited format used in spreadsheet applications
http://www.bom.gov.au/fwo/IDN60801/IDN60801.95745.axf

JavaScript Object Notation format (JSON) in row-major order
http://www.bom.gov.au/fwo/IDN60801/IDN60801.95745.json